Time;durP1;ratioP1;P1;durP2;ratioP2;P2;SDS_P1;SDS_P2;PMS_P1;PMS_P2;Temp;Humidity;BMP_temperature;BMP_pressure;BME280_temperature;BME280_humidity;BME280_pressure;Samples;Min_cycle;Max_cycle;Signal;HPM_P1;HPM_P2
2023/10/15 00:02:23;;;;;;;0.25;0.17;;;;;;;;;;6199259;28;19921;-85
2023/10/15 00:05:27;;;;;;;0.40;0.30;;;;;;;;;;6198235;28;20037;-85
2023/10/15 00:08:27;;;;;;;0.55;0.40;;;;;;;;;;6197866;28;20041;-85
2023/10/15 00:11:27;;;;;;;0.53;0.33;;;;;;;;;;6200098;28;20022;-85
2023/10/15 00:14:28;;;;;;;0.37;0.30;;;;;;;;;;6189200;28;20435;-85
2023/10/15 00:17:29;;;;;;;0.60;0.30;;;;;;;;;;6198434;28;20537;-85
2023/10/15 00:20:35;;;;;;;0.47;0.40;;;;;;;;;;6185406;28;20380;-85
2023/10/15 00:23:36;;;;;;;0.52;0.38;;;;;;;;;;6171378;28;20026;-85
2023/10/15 00:26:38;;;;;;;1.02;0.35;;;;;;;;;;6216369;28;20346;-85
2023/10/15 00:29:39;;;;;;;0.50;0.50;;;;;;;;;;6215271;28;20022;-86
2023/10/15 00:32:42;;;;;;;1.02;0.40;;;;;;;;;;6160632;28;20107;-85
2023/10/15 00:35:44;;;;;;;0.90;0.35;;;;;;;;;;6306709;28;20375;-85
2023/10/15 00:38:45;;;;;;;1.60;0.50;;;;;;;;;;6284145;28;20470;-85
2023/10/15 00:41:46;;;;;;;2.03;0.60;;;;;;;;;;6220089;28;20026;-86
2023/10/15 00:44:47;;;;;;;1.08;0.50;;;;;;;;;;6192146;28;20018;-85
2023/10/15 00:48:00;;;;;;;;;;;;;;;;;;6182910;28;20459;-85
2023/10/15 00:51:04;;;;;;;0.60;0.35;;;;;;;;;;6211134;28;19936;-86
2023/10/15 00:54:09;;;;;;;0.95;0.47;;;;;;;;;;6202901;28;20029;-86
2023/10/15 00:57:25;;;;;;;0.60;0.40;;;;;;;;;;6195955;28;20471;-86
2023/10/15 01:03:49;;;;;;;0.98;0.40;;;;;;;;;;6200749;28;20025;-86
2023/10/15 01:06:49;;;;;;;0.63;0.28;;;;;;;;;;6177284;28;20045;-86
2023/10/15 01:09:50;;;;;;;0.47;0.40;;;;;;;;;;6177197;28;20027;-86
2023/10/15 01:12:50;;;;;;;0.53;0.40;;;;;;;;;;6191139;28;20025;-86
2023/10/15 01:15:54;;;;;;;1.13;0.50;;;;;;;;;;6179265;28;20026;-86
2023/10/15 01:19:36;;;;;;;0.82;0.55;;;;;;;;;;6171183;28;20051;-86
2023/10/15 01:22:18;;;;;;;1.60;0.40;;;;;;;;;;5829923;27;9999776;-86
2023/10/15 01:25:32;;;;;;;0.90;0.40;;;;;;;;;;6205529;28;20293;-85
2023/10/15 01:28:38;;;;;;;0.68;0.40;;;;;;;;;;6194695;28;20038;-86
2023/10/15 01:31:50;;;;;;;0.98;0.45;;;;;;;;;;6173435;28;20023;-85
2023/10/15 01:34:52;;;;;;;0.82;0.40;;;;;;;;;;6189214;28;20109;-85
2023/10/15 01:38:10;;;;;;;0.75;0.40;;;;;;;;;;6199271;28;20060;-85
2023/10/15 01:41:14;;;;;;;0.55;0.45;;;;;;;;;;6186627;28;20019;-85
2023/10/15 01:44:18;;;;;;;1.33;0.60;;;;;;;;;;6178395;28;20052;-85
2023/10/15 01:47:18;;;;;;;1.10;0.43;;;;;;;;;;6174819;28;20027;-86
2023/10/15 01:51:20;;;;;;;1.50;0.50;;;;;;;;;;6174409;28;20035;-85
2023/10/15 01:53:50;;;;;;;1.10;0.50;;;;;;;;;;6198408;28;20038;-86
2023/10/15 01:56:55;;;;;;;0.82;0.60;;;;;;;;;;6184570;28;20051;-85
2023/10/15 02:03:14;;;;;;;0.80;0.30;;;;;;;;;;6203338;28;20062;-85
2023/10/15 02:06:17;;;;;;;0.53;0.47;;;;;;;;;;6198204;28;20418;-84
2023/10/15 02:09:21;;;;;;;1.70;0.50;;;;;;;;;;6210113;28;20091;-85
2023/10/15 02:12:22;;;;;;;0.30;0.30;;;;;;;;;;6184745;28;20107;-85
2023/10/15 02:15:22;;;;;;;1.07;0.47;;;;;;;;;;6216560;28;20030;-84
2023/10/15 02:18:22;;;;;;;1.00;0.40;;;;;;;;;;6219408;28;20117;-84
2023/10/15 02:21:23;;;;;;;0.80;0.40;;;;;;;;;;6174505;28;20675;-85
2023/10/15 02:24:23;;;;;;;1.05;0.60;;;;;;;;;;6186342;28;20485;-85
2023/10/15 02:27:24;;;;;;;1.77;0.60;;;;;;;;;;6204058;28;20030;-85
2023/10/15 02:30:25;;;;;;;0.45;0.35;;;;;;;;;;6182180;28;20031;-85
2023/10/15 02:33:25;;;;;;;0.37;0.30;;;;;;;;;;6173752;28;20039;-85
2023/10/15 02:36:25;;;;;;;0.57;0.30;;;;;;;;;;6173052;28;20069;-85
2023/10/15 02:39:25;;;;;;;0.47;0.40;;;;;;;;;;6209489;28;20050;-84
2023/10/15 02:42:35;;;;;;;0.90;0.50;;;;;;;;;;6215910;28;20026;-84
2023/10/15 02:45:35;;;;;;;0.85;0.40;;;;;;;;;;6196904;28;20038;-85
2023/10/15 02:48:35;;;;;;;0.93;0.40;;;;;;;;;;6172087;28;20089;-85
2023/10/15 02:51:36;;;;;;;1.43;0.40;;;;;;;;;;6179852;28;20037;-85
2023/10/15 02:54:39;;;;;;;1.97;0.40;;;;;;;;;;6207604;28;20026;-84
2023/10/15 02:57:40;;;;;;;0.82;0.55;;;;;;;;;;6206401;28;20049;-84
2023/10/15 03:00:41;;;;;;;1.20;0.50;;;;;;;;;;6201243;28;20034;-84
2023/10/15 03:03:48;;;;;;;2.15;0.60;;;;;;;;;;6195230;28;20023;-85
2023/10/15 03:06:48;;;;;;;1.30;0.57;;;;;;;;;;6178515;28;20073;-84
2023/10/15 03:09:48;;;;;;;0.80;0.43;;;;;;;;;;6220753;28;20028;-84
2023/10/15 03:12:49;;;;;;;1.43;0.53;;;;;;;;;;6208582;28;20375;-84
2023/10/15 03:15:49;;;;;;;1.13;0.57;;;;;;;;;;6217816;28;20029;-85
2023/10/15 03:18:49;;;;;;;1.13;0.57;;;;;;;;;;6210846;28;20030;-84
2023/10/15 03:21:57;;;;;;;0.47;0.38;;;;;;;;;;6204621;28;20058;-84
2023/10/15 03:24:59;;;;;;;1.13;0.50;;;;;;;;;;6172828;28;20026;-85
2023/10/15 03:28:00;;;;;;;0.55;0.32;;;;;;;;;;6210493;28;20061;-84
2023/10/15 03:31:00;;;;;;;1.25;0.43;;;;;;;;;;6221685;28;20022;-84
2023/10/15 03:34:14;;;;;;;1.37;0.50;;;;;;;;;;6198022;28;20034;-84
2023/10/15 03:37:15;;;;;;;1.17;0.40;;;;;;;;;;6185831;28;20030;-84
2023/10/15 03:40:31;;;;;;;1.90;0.50;;;;;;;;;;6179433;28;20688;-84
2023/10/15 03:43:34;;;;;;;0.40;0.30;;;;;;;;;;6183126;28;20092;-85
2023/10/15 03:46:36;;;;;;;1.40;0.60;;;;;;;;;;6186190;28;20062;-84
2023/10/15 03:49:37;;;;;;;1.35;0.50;;;;;;;;;;6189692;28;20441;-84
2023/10/15 03:52:37;;;;;;;0.73;0.50;;;;;;;;;;6184819;28;20058;-84
2023/10/15 03:55:37;;;;;;;1.27;0.30;;;;;;;;;;6175965;28;20038;-83
2023/10/15 03:58:37;;;;;;;2.03;0.33;;;;;;;;;;6223309;28;20382;-83
2023/10/15 04:01:47;;;;;;;1.97;0.40;;;;;;;;;;6177847;28;20031;-83
2023/10/15 04:04:47;;;;;;;0.93;0.45;;;;;;;;;;6175262;28;20431;-84
2023/10/15 04:07:53;;;;;;;0.97;0.40;;;;;;;;;;6190971;28;20038;-83
2023/10/15 04:10:55;;;;;;;0.40;0.30;;;;;;;;;;6214161;28;20110;-84
2023/10/15 04:13:56;;;;;;;2.45;0.32;;;;;;;;;;6193386;28;20171;-83
2023/10/15 04:16:57;;;;;;;1.55;0.60;;;;;;;;;;6183789;28;20023;-84
2023/10/15 04:19:57;;;;;;;1.27;0.37;;;;;;;;;;6195577;28;20049;-83
2023/10/15 04:22:57;;;;;;;0.97;0.47;;;;;;;;;;6194465;28;20258;-83
2023/10/15 04:26:07;;;;;;;1.00;0.43;;;;;;;;;;6208829;28;20026;-83
2023/10/15 04:29:17;;;;;;;0.90;0.40;;;;;;;;;;6171448;28;20027;-83
2023/10/15 04:35:32;;;;;;;1.27;0.60;;;;;;;;;;6219284;28;20038;-84
2023/10/15 04:38:33;;;;;;;2.72;0.50;;;;;;;;;;6217380;28;20245;-83
2023/10/15 04:41:33;;;;;;;0.43;0.30;;;;;;;;;;6194247;28;20018;-83
2023/10/15 04:44:34;;;;;;;0.63;0.40;;;;;;;;;;6177959;28;20034;-83
2023/10/15 04:47:41;;;;;;;0.40;0.30;;;;;;;;;;6166938;28;20030;-83
2023/10/15 04:50:43;;;;;;;1.88;0.40;;;;;;;;;;6195897;28;20030;-82
2023/10/15 04:53:50;;;;;;;0.65;0.40;;;;;;;;;;6194385;28;20469;-83
2023/10/15 04:56:51;;;;;;;1.23;0.40;;;;;;;;;;6218053;28;20466;-83
2023/10/15 04:59:51;;;;;;;1.50;0.50;;;;;;;;;;6189957;28;20361;-83
2023/10/15 05:02:52;;;;;;;1.73;0.43;;;;;;;;;;6190744;28;20035;-83
2023/10/15 05:05:53;;;;;;;0.33;0.27;;;;;;;;;;6195519;28;20030;-83
2023/10/15 05:08:53;;;;;;;1.50;0.50;;;;;;;;;;6190291;28;20415;-83
2023/10/15 05:11:54;;;;;;;0.52;0.40;;;;;;;;;;6206277;28;20058;-83
2023/10/15 05:14:54;;;;;;;0.88;0.47;;;;;;;;;;6177617;28;20123;-83
2023/10/15 05:17:55;;;;;;;1.43;0.30;;;;;;;;;;6196820;28;20038;-83
2023/10/15 05:20:57;;;;;;;1.10;0.30;;;;;;;;;;6196146;28;20034;-83
2023/10/15 05:23:58;;;;;;;0.55;0.40;;;;;;;;;;6178372;28;20034;-82
2023/10/15 05:26:58;;;;;;;2.10;0.50;;;;;;;;;;6177369;28;20026;-83
2023/10/15 05:29:58;;;;;;;1.07;0.30;;;;;;;;;;6185120;28;20395;-83
2023/10/15 05:33:00;;;;;;;0.77;0.40;;;;;;;;;;6193524;28;20026;-82
2023/10/15 05:36:01;;;;;;;1.10;0.40;;;;;;;;;;6180463;28;20034;-83
2023/10/15 05:39:06;;;;;;;0.87;0.37;;;;;;;;;;6206646;28;20132;-83
2023/10/15 05:42:07;;;;;;;0.65;0.32;;;;;;;;;;6196988;28;20022;-84
2023/10/15 05:45:07;;;;;;;0.65;0.40;;;;;;;;;;6199853;28;20395;-86
2023/10/15 05:48:08;;;;;;;1.30;0.37;;;;;;;;;;6201686;28;20106;-87
2023/10/15 05:51:09;;;;;;;2.40;0.50;;;;;;;;;;6194119;28;20585;-85
2023/10/15 05:54:09;;;;;;;0.82;0.40;;;;;;;;;;6207098;28;20037;-86
2023/10/15 05:57:10;;;;;;;0.87;0.40;;;;;;;;;;6195799;28;20038;-87
2023/10/15 06:00:26;;;;;;;1.92;0.55;;;;;;;;;;6177196;28;20058;-87
2023/10/15 06:03:26;;;;;;;1.13;0.40;;;;;;;;;;6203972;28;20065;-87
2023/10/15 06:06:26;;;;;;;1.37;0.50;;;;;;;;;;6195891;28;20082;-87
2023/10/15 06:09:27;;;;;;;1.00;0.47;;;;;;;;;;6182094;28;20061;-87
2023/10/15 06:12:27;;;;;;;0.73;0.40;;;;;;;;;;6186204;28;20023;-86
2023/10/15 06:15:28;;;;;;;0.83;0.40;;;;;;;;;;6182019;28;20038;-87
2023/10/15 06:18:28;;;;;;;1.17;0.32;;;;;;;;;;6195797;28;20075;-86
2023/10/15 06:21:28;;;;;;;1.47;0.40;;;;;;;;;;6198341;28;20064;-87
2023/10/15 06:24:29;;;;;;;0.90;0.53;;;;;;;;;;6177514;28;20011;-86
2023/10/15 06:27:29;;;;;;;0.57;0.40;;;;;;;;;;6186219;28;20034;-87
2023/10/15 06:30:29;;;;;;;1.50;0.70;;;;;;;;;;6173565;28;20057;-86
2023/10/15 06:33:29;;;;;;;0.40;0.27;;;;;;;;;;6180804;28;20026;-87
2023/10/15 06:36:30;;;;;;;1.07;0.40;;;;;;;;;;6180462;28;20129;-86
2023/10/15 06:39:30;;;;;;;1.10;0.50;;;;;;;;;;6189806;28;20391;-86
2023/10/15 06:42:30;;;;;;;0.77;0.47;;;;;;;;;;6179416;28;20383;-86
2023/10/15 06:45:31;;;;;;;0.83;0.30;;;;;;;;;;6194205;28;20042;-86
2023/10/15 06:48:33;;;;;;;;;;;;;;;;;;6193236;28;20022;-86
2023/10/15 06:51:33;;;;;;;0.35;0.30;;;;;;;;;;6190766;28;19914;-86
2023/10/15 06:54:34;;;;;;;0.73;0.23;;;;;;;;;;6201714;28;20136;-86
2023/10/15 06:57:38;;;;;;;1.33;0.45;;;;;;;;;;6195686;28;20311;-86
2023/10/15 07:00:39;;;;;;;0.25;0.20;;;;;;;;;;6192407;28;20428;-86
2023/10/15 07:03:39;;;;;;;1.80;0.50;;;;;;;;;;6199196;28;20031;-85
2023/10/15 07:06:42;;;;;;;0.53;0.30;;;;;;;;;;6202776;28;20046;-85
2023/10/15 07:09:42;;;;;;;0.95;0.50;;;;;;;;;;6204829;28;20022;-86
2023/10/15 07:12:44;;;;;;;2.53;1.00;;;;;;;;;;6200312;28;20034;-86
2023/10/15 07:15:47;;;;;;;;;;;;;;;;;;6183740;28;20464;-86
2023/10/15 07:18:47;;;;;;;1.58;0.60;;;;;;;;;;6187306;28;19909;-86
2023/10/15 07:21:48;;;;;;;0.70;0.37;;;;;;;;;;6181308;28;20058;-86
2023/10/15 07:24:50;;;;;;;0.60;0.40;;;;;;;;;;6210056;28;20375;-86
2023/10/15 07:27:50;;;;;;;1.08;0.50;;;;;;;;;;6192683;28;20034;-86
2023/10/15 07:30:50;;;;;;;0.63;0.30;;;;;;;;;;6219664;28;20111;-86
2023/10/15 07:33:53;;;;;;;1.83;0.40;;;;;;;;;;6216839;28;20042;-67
2023/10/15 07:36:55;;;;;;;1.17;0.32;;;;;;;;;;6198048;28;20583;-73
2023/10/15 07:39:55;;;;;;;0.50;0.30;;;;;;;;;;6230205;28;20054;-65
2023/10/15 07:42:59;;;;;;;0.90;0.40;;;;;;;;;;6185654;28;20064;-66
2023/10/15 07:45:59;;;;;;;1.10;0.30;;;;;;;;;;6183015;28;20058;-87
2023/10/15 07:49:00;;;;;;;2.10;0.37;;;;;;;;;;6200659;28;20037;-88
2023/10/15 07:52:01;;;;;;;0.87;0.50;;;;;;;;;;6203240;28;20022;-87
2023/10/15 07:55:01;;;;;;;0.85;0.40;;;;;;;;;;6199444;28;20349;-87
2023/10/15 07:58:01;;;;;;;2.08;0.40;;;;;;;;;;6197517;28;20026;-87
2023/10/15 08:01:04;;;;;;;0.53;0.30;;;;;;;;;;6196646;28;20027;-87
2023/10/15 08:04:06;;;;;;;0.80;0.50;;;;;;;;;;6210142;28;20466;-87
2023/10/15 08:07:08;;;;;;;0.98;0.50;;;;;;;;;;6201411;28;20134;-84
2023/10/15 08:10:09;;;;;;;0.85;0.40;;;;;;;;;;6165358;28;20030;-80
2023/10/15 08:13:09;;;;;;;1.45;0.50;;;;;;;;;;6211918;28;20344;-81
2023/10/15 08:16:09;;;;;;;0.70;0.53;;;;;;;;;;6172971;28;20126;-79
2023/10/15 08:19:10;;;;;;;1.70;0.90;;;;;;;;;;6206537;28;20401;-80
2023/10/15 08:22:10;;;;;;;3.23;0.70;;;;;;;;;;6167936;28;20126;-80
2023/10/15 08:25:13;;;;;;;1.80;0.70;;;;;;;;;;6209515;28;20332;-80
2023/10/15 08:28:14;;;;;;;0.90;0.50;;;;;;;;;;6188617;28;20074;-79
2023/10/15 08:31:14;;;;;;;1.05;0.50;;;;;;;;;;6195421;28;20030;-80
2023/10/15 08:34:15;;;;;;;1.50;0.40;;;;;;;;;;6207957;28;20410;-80
2023/10/15 08:37:16;;;;;;;1.30;0.50;;;;;;;;;;6206512;28;20578;-80
2023/10/15 08:40:17;;;;;;;1.47;0.50;;;;;;;;;;6185495;28;20550;-79
2023/10/15 08:43:20;;;;;;;1.02;0.40;;;;;;;;;;6184093;28;20073;-69
2023/10/15 08:46:22;;;;;;;1.05;0.30;;;;;;;;;;6187183;28;20387;-79
2023/10/15 08:49:24;;;;;;;0.55;0.40;;;;;;;;;;6171423;28;20376;-80
2023/10/15 08:52:26;;;;;;;0.50;0.30;;;;;;;;;;6281509;28;20056;-79
2023/10/15 08:55:27;;;;;;;0.65;0.30;;;;;;;;;;6223831;28;20037;-79
2023/10/15 08:58:28;;;;;;;0.33;0.27;;;;;;;;;;6207222;28;20056;-79
2023/10/15 09:01:29;;;;;;;0.55;0.38;;;;;;;;;;6187030;28;20471;-78
2023/10/15 09:04:29;;;;;;;1.90;0.50;;;;;;;;;;6208570;28;20029;-79
2023/10/15 09:07:29;;;;;;;0.80;0.40;;;;;;;;;;6198479;28;20089;-79
2023/10/15 09:10:34;;;;;;;1.02;0.43;;;;;;;;;;6173266;28;20106;-78
2023/10/15 09:13:37;;;;;;;1.00;0.50;;;;;;;;;;6172799;28;20167;-79
2023/10/15 09:16:37;;;;;;;1.02;0.50;;;;;;;;;;6185531;28;20087;-84
2023/10/15 09:19:38;;;;;;;1.70;0.30;;;;;;;;;;6180759;28;20456;-81
2023/10/15 09:22:39;;;;;;;1.30;0.50;;;;;;;;;;6208888;28;20028;-84
2023/10/15 09:25:41;;;;;;;1.33;0.50;;;;;;;;;;6190944;28;20436;-83
2023/10/15 09:28:41;;;;;;;1.55;0.45;;;;;;;;;;6207739;28;20273;-83
2023/10/15 09:31:41;;;;;;;1.33;0.30;;;;;;;;;;6192583;28;20018;-81
2023/10/15 09:34:42;;;;;;;1.80;0.47;;;;;;;;;;6193856;28;20023;-81
2023/10/15 09:37:42;;;;;;;1.03;0.40;;;;;;;;;;6193890;28;20026;-78
2023/10/15 09:40:45;;;;;;;0.43;0.33;;;;;;;;;;6289606;28;20026;-75
2023/10/15 09:43:46;;;;;;;1.30;0.50;;;;;;;;;;6197925;28;20022;-79
2023/10/15 09:46:46;;;;;;;1.55;0.40;;;;;;;;;;6182589;28;20486;-79
2023/10/15 09:49:48;;;;;;;0.98;0.50;;;;;;;;;;6169578;28;20042;-77
2023/10/15 09:52:55;;;;;;;1.13;0.50;;;;;;;;;;6179242;28;20599;-78
2023/10/15 09:55:57;;;;;;;1.10;0.50;;;;;;;;;;6186099;28;20156;-79
2023/10/15 09:58:57;;;;;;;0.70;0.50;;;;;;;;;;6192667;28;20034;-78
2023/10/15 10:02:05;;;;;;;1.30;0.53;;;;;;;;;;6187741;28;20397;-78
2023/10/15 10:05:31;;;;;;;3.00;0.70;;;;;;;;;;6215276;28;20022;-77
2023/10/15 10:08:56;;;;;;;1.90;0.55;;;;;;;;;;6186264;28;20108;-77
2023/10/15 10:12:08;;;;;;;1.67;0.55;;;;;;;;;;6162668;28;20117;-76
2023/10/15 10:15:15;;;;;;;1.08;0.50;;;;;;;;;;6207038;28;20022;-76
2023/10/15 10:18:16;;;;;;;1.48;0.65;;;;;;;;;;6197896;28;20113;-77
2023/10/15 10:21:16;;;;;;;1.10;0.40;;;;;;;;;;6213844;28;20071;-77
2023/10/15 10:24:17;;;;;;;1.88;0.60;;;;;;;;;;6211629;28;20045;-77
2023/10/15 10:27:17;;;;;;;1.47;0.60;;;;;;;;;;6200266;28;20038;-78
2023/10/15 10:30:27;;;;;;;1.15;0.55;;;;;;;;;;6205030;28;20505;-78
2023/10/15 10:33:43;;;;;;;0.75;0.43;;;;;;;;;;6190372;28;20030;-78
2023/10/15 10:36:51;;;;;;;1.83;0.60;;;;;;;;;;6199953;28;20030;-77
2023/10/15 10:39:51;;;;;;;0.68;0.30;;;;;;;;;;6172756;28;20081;-77
2023/10/15 10:43:04;;;;;;;1.17;0.40;;;;;;;;;;6188848;28;20102;-77
2023/10/15 10:46:06;;;;;;;0.95;0.43;;;;;;;;;;6221683;28;20026;-77
2023/10/15 10:49:13;;;;;;;2.47;0.40;;;;;;;;;;6201337;28;20842;-78
2023/10/15 10:52:19;;;;;;;1.13;0.52;;;;;;;;;;6184876;28;20080;-78
2023/10/15 10:55:39;;;;;;;0.50;0.22;;;;;;;;;;6211070;28;20031;-76
2023/10/15 10:58:44;;;;;;;1.38;0.40;;;;;;;;;;6177873;28;20538;-76
2023/10/15 11:01:47;;;;;;;0.88;0.40;;;;;;;;;;6200250;28;20025;-77
2023/10/15 11:04:47;;;;;;;1.95;0.30;;;;;;;;;;6212890;28;20105;-76
2023/10/15 11:07:47;;;;;;;1.23;0.40;;;;;;;;;;6203156;28;20395;-77
2023/10/15 11:10:48;;;;;;;1.30;0.30;;;;;;;;;;6185603;28;20030;-77
2023/10/15 11:13:48;;;;;;;1.30;0.38;;;;;;;;;;6191815;28;20096;-77
2023/10/15 11:16:50;;;;;;;1.13;0.50;;;;;;;;;;6194740;28;20502;-76
2023/10/15 11:19:50;;;;;;;0.80;0.40;;;;;;;;;;6196525;28;20018;-76
2023/10/15 11:22:51;;;;;;;0.50;0.40;;;;;;;;;;6204141;28;20026;-78
2023/10/15 11:25:53;;;;;;;1.60;0.50;;;;;;;;;;6206467;28;20030;-78
2023/10/15 11:28:53;;;;;;;0.98;0.30;;;;;;;;;;6190573;28;20045;-78
2023/10/15 11:31:55;;;;;;;1.48;0.60;;;;;;;;;;6251676;28;20030;-78
2023/10/15 11:34:57;;;;;;;1.45;0.50;;;;;;;;;;6217261;28;20069;-79
2023/10/15 11:37:57;;;;;;;0.60;0.40;;;;;;;;;;6198144;28;20069;-79
2023/10/15 11:40:57;;;;;;;0.67;0.40;;;;;;;;;;6176657;28;20027;-79
2023/10/15 11:44:01;;;;;;;1.63;0.57;;;;;;;;;;6212920;28;20026;-80
2023/10/15 11:47:08;;;;;;;1.35;0.50;;;;;;;;;;6182841;28;20386;-79
2023/10/15 11:50:09;;;;;;;0.73;0.30;;;;;;;;;;6188640;28;20109;-79
2023/10/15 11:53:23;;;;;;;0.53;0.33;;;;;;;;;;6195230;28;20034;-80
2023/10/15 11:56:26;;;;;;;0.63;0.40;;;;;;;;;;6208529;28;20026;-80
2023/10/15 11:59:26;;;;;;;1.80;0.45;;;;;;;;;;6203977;28;20042;-80
2023/10/15 12:02:27;;;;;;;1.58;0.32;;;;;;;;;;6200543;28;20109;-80
2023/10/15 12:05:33;;;;;;;1.27;0.60;;;;;;;;;;6196059;28;20038;-81
2023/10/15 12:08:33;;;;;;;0.70;0.55;;;;;;;;;;6183868;28;20033;-80
2023/10/15 12:11:35;;;;;;;0.93;0.57;;;;;;;;;;6202633;28;20027;-79
2023/10/15 12:14:35;;;;;;;0.32;0.32;;;;;;;;;;6189472;28;20023;-79
2023/10/15 12:17:36;;;;;;;1.53;0.60;;;;;;;;;;6174940;28;20066;-80
2023/10/15 12:20:39;;;;;;;0.67;0.40;;;;;;;;;;6182734;28;20109;-81
2023/10/15 12:23:43;;;;;;;0.88;0.40;;;;;;;;;;6186116;28;20019;-79
2023/10/15 12:26:43;;;;;;;0.88;0.40;;;;;;;;;;6175524;28;20427;-82
2023/10/15 12:29:43;;;;;;;1.00;0.50;;;;;;;;;;6175564;28;20026;-81
2023/10/15 12:32:43;;;;;;;1.13;0.33;;;;;;;;;;6202720;28;20030;-79
2023/10/15 12:35:44;;;;;;;0.70;0.43;;;;;;;;;;6187245;28;20057;-79
2023/10/15 12:38:45;;;;;;;1.25;0.60;;;;;;;;;;6169639;28;20397;-80
2023/10/15 12:41:45;;;;;;;0.90;0.50;;;;;;;;;;6182919;28;20033;-80
2023/10/15 12:44:46;;;;;;;0.30;0.30;;;;;;;;;;6219657;28;20474;-80
2023/10/15 12:47:47;;;;;;;1.17;0.38;;;;;;;;;;6197090;28;20475;-80
2023/10/15 12:50:48;;;;;;;;;;;;;;;;;;6196050;28;20028;-81
2023/10/15 12:53:48;;;;;;;1.00;0.47;;;;;;;;;;6193177;28;19910;-84
2023/10/15 12:56:48;;;;;;;0.87;0.50;;;;;;;;;;6186646;28;20038;-82
2023/10/15 12:59:48;;;;;;;1.43;0.57;;;;;;;;;;6194641;28;20042;-81
2023/10/15 13:02:49;;;;;;;1.17;0.50;;;;;;;;;;6187380;28;20101;-82
2023/10/15 13:05:50;;;;;;;0.98;0.50;;;;;;;;;;6211284;28;20061;-83
2023/10/15 13:08:50;;;;;;;0.40;0.37;;;;;;;;;;6179938;28;20038;-83
2023/10/15 13:11:50;;;;;;;1.50;0.43;;;;;;;;;;6180775;28;20022;-72
2023/10/15 13:14:50;;;;;;;1.33;0.40;;;;;;;;;;6191969;28;20058;-75
2023/10/15 13:17:54;;;;;;;1.57;0.37;;;;;;;;;;6199234;28;20034;-82
2023/10/15 13:20:57;;;;;;;0.82;0.43;;;;;;;;;;6192019;28;20049;-81
2023/10/15 13:23:57;;;;;;;1.38;0.50;;;;;;;;;;6199282;28;20471;-83
2023/10/15 13:26:58;;;;;;;1.23;0.63;;;;;;;;;;6196158;28;20054;-86
2023/10/15 13:29:58;;;;;;;0.97;0.57;;;;;;;;;;6192287;28;20398;-77
2023/10/15 13:32:58;;;;;;;0.90;0.50;;;;;;;;;;6189987;28;20487;-80
2023/10/15 13:35:58;;;;;;;1.77;0.70;;;;;;;;;;6162946;28;20033;-83
2023/10/15 13:38:59;;;;;;;2.63;0.30;;;;;;;;;;6183204;28;20042;-81
2023/10/15 13:41:59;;;;;;;1.35;0.60;;;;;;;;;;6186636;28;21256;-77
2023/10/15 13:45:00;;;;;;;0.63;0.33;;;;;;;;;;6193074;28;20467;-76
2023/10/15 13:48:00;;;;;;;0.40;0.33;;;;;;;;;;6183793;28;20060;-75
2023/10/15 13:51:00;;;;;;;1.37;0.90;;;;;;;;;;6191845;28;20026;-83
2023/10/15 13:54:01;;;;;;;2.30;0.70;;;;;;;;;;6207406;28;20030;-82
2023/10/15 13:57:01;;;;;;;0.70;0.45;;;;;;;;;;6199180;28;20498;-81
2023/10/15 14:00:02;;;;;;;0.70;0.40;;;;;;;;;;6186298;28;20038;-80
2023/10/15 14:03:04;;;;;;;1.23;0.63;;;;;;;;;;6198503;28;20018;-83
2023/10/15 14:06:05;;;;;;;0.40;0.40;;;;;;;;;;6187745;28;20026;-82
2023/10/15 14:09:11;;;;;;;0.70;0.50;;;;;;;;;;6179481;28;20023;-83
2023/10/15 14:12:11;;;;;;;1.23;0.50;;;;;;;;;;6179769;28;20041;-84
2023/10/15 14:15:16;;;;;;;0.60;0.33;;;;;;;;;;6187846;28;20464;-83
2023/10/15 14:18:17;;;;;;;1.08;0.45;;;;;;;;;;6181018;28;20018;-83
2023/10/15 14:21:18;;;;;;;0.43;0.35;;;;;;;;;;6180940;28;20429;-84
2023/10/15 14:24:18;;;;;;;0.53;0.33;;;;;;;;;;6186638;28;20035;-83
2023/10/15 14:27:18;;;;;;;0.50;0.30;;;;;;;;;;5843065;27;10000329;-83
2023/10/15 14:30:18;;;;;;;0.70;0.40;;;;;;;;;;6171535;28;20027;-83
2023/10/15 14:33:19;;;;;;;0.87;0.37;;;;;;;;;;6205267;28;20026;-84
2023/10/15 14:36:25;;;;;;;0.80;0.40;;;;;;;;;;6192204;28;20053;-83
2023/10/15 14:39:25;;;;;;;0.80;0.35;;;;;;;;;;6193674;28;20487;-83
2023/10/15 14:42:25;;;;;;;0.50;0.50;;;;;;;;;;6197375;28;20057;-71
2023/10/15 14:45:25;;;;;;;0.87;0.50;;;;;;;;;;6223825;28;20151;-80
2023/10/15 14:48:26;;;;;;;0.90;0.43;;;;;;;;;;6280890;28;20018;-80
2023/10/15 14:51:27;;;;;;;1.38;1.10;;;;;;;;;;6193701;28;20062;-83
2023/10/15 14:54:27;;;;;;;1.37;0.97;;;;;;;;;;6194815;28;20038;-82
2023/10/15 14:57:28;;;;;;;0.97;0.47;;;;;;;;;;6196027;28;20482;-83
2023/10/15 15:00:29;;;;;;;0.85;0.50;;;;;;;;;;6183524;28;20395;-82
2023/10/15 15:03:31;;;;;;;0.70;0.40;;;;;;;;;;6189158;28;20026;-83
2023/10/15 15:06:37;;;;;;;1.98;0.60;;;;;;;;;;6175505;28;20030;-83
2023/10/15 15:09:37;;;;;;;0.73;0.50;;;;;;;;;;6181814;28;20030;-84
2023/10/15 15:12:37;;;;;;;0.97;0.40;;;;;;;;;;6192562;28;20037;-84
2023/10/15 15:15:41;;;;;;;0.87;0.30;;;;;;;;;;6171903;28;20030;-83
2023/10/15 15:18:42;;;;;;;1.35;0.40;;;;;;;;;;5501397;28;10000531;-83
2023/10/15 15:21:44;;;;;;;0.87;0.50;;;;;;;;;;6217321;28;20490;-85
2023/10/15 15:24:45;;;;;;;0.75;0.50;;;;;;;;;;6172963;28;20109;-86
2023/10/15 15:27:45;;;;;;;1.10;0.50;;;;;;;;;;6176455;28;20029;-85
2023/10/15 15:30:45;;;;;;;0.60;0.53;;;;;;;;;;6172068;28;20118;-86
2023/10/15 15:33:46;;;;;;;0.60;0.30;;;;;;;;;;6200576;28;20022;-84
2023/10/15 15:36:46;;;;;;;2.47;1.45;;;;;;;;;;6190546;28;20022;-84
2023/10/15 15:39:47;;;;;;;2.67;1.70;;;;;;;;;;6195041;28;20074;-84
2023/10/15 15:42:47;;;;;;;1.77;1.53;;;;;;;;;;6195661;28;20027;-84
2023/10/15 15:45:47;;;;;;;1.97;0.90;;;;;;;;;;6194485;28;20109;-84
2023/10/15 15:48:47;;;;;;;1.30;0.90;;;;;;;;;;6192207;28;20089;-85
2023/10/15 15:51:48;;;;;;;1.13;0.60;;;;;;;;;;6208325;28;20094;-84
2023/10/15 15:54:48;;;;;;;0.57;0.47;;;;;;;;;;6180338;28;20456;-86
2023/10/15 15:57:48;;;;;;;1.50;0.50;;;;;;;;;;6193227;28;20474;-86
2023/10/15 16:00:48;;;;;;;0.80;0.40;;;;;;;;;;6195489;28;20019;-86
2023/10/15 16:03:54;;;;;;;0.60;0.30;;;;;;;;;;6194054;28;20034;-85
2023/10/15 16:06:54;;;;;;;1.40;0.30;;;;;;;;;;6191400;28;20085;-85
2023/10/15 16:09:54;;;;;;;0.60;0.33;;;;;;;;;;6188675;28;20034;-86
2023/10/15 16:12:55;;;;;;;0.50;0.40;;;;;;;;;;6196005;28;20030;-85
2023/10/15 16:15:55;;;;;;;0.80;0.40;;;;;;;;;;6185847;28;20112;-84
2023/10/15 16:18:55;;;;;;;0.40;0.40;;;;;;;;;;6218299;28;20022;-84
2023/10/15 16:21:56;;;;;;;2.03;1.10;;;;;;;;;;6216901;28;20045;-83
2023/10/15 16:24:56;;;;;;;5.17;0.80;;;;;;;;;;6182745;28;20023;-83
2023/10/15 16:27:56;;;;;;;0.93;0.67;;;;;;;;;;6186067;28;20433;-83
2023/10/15 16:30:56;;;;;;;0.67;0.40;;;;;;;;;;6170960;28;20491;-83
2023/10/15 16:33:57;;;;;;;0.63;0.50;;;;;;;;;;6165610;28;20049;-83
2023/10/15 16:36:57;;;;;;;1.97;0.60;;;;;;;;;;6184772;28;20114;-82
2023/10/15 16:39:57;;;;;;;0.45;0.40;;;;;;;;;;5826059;28;9999756;-84
2023/10/15 16:42:58;;;;;;;0.40;0.37;;;;;;;;;;6186755;28;20029;-82
2023/10/15 16:45:59;;;;;;;0.68;0.50;;;;;;;;;;6180709;28;20026;-83
2023/10/15 16:49:00;;;;;;;0.88;0.40;;;;;;;;;;6173439;28;20038;-82
2023/10/15 16:52:00;;;;;;;0.73;0.40;;;;;;;;;;6181366;28;20085;-82
2023/10/15 16:55:00;;;;;;;0.87;0.40;;;;;;;;;;6197505;28;20010;-83
2023/10/15 16:58:01;;;;;;;1.13;0.50;;;;;;;;;;6199307;28;20075;-83
2023/10/15 17:01:04;;;;;;;1.20;0.50;;;;;;;;;;6186544;28;20018;-84
2023/10/15 17:04:04;;;;;;;0.50;0.30;;;;;;;;;;6201214;28;20466;-80
2023/10/15 17:07:04;;;;;;;0.67;0.30;;;;;;;;;;6192215;28;20030;-84
2023/10/15 17:10:05;;;;;;;0.37;0.20;;;;;;;;;;6194941;28;20455;-83
2023/10/15 17:13:05;;;;;;;0.50;0.37;;;;;;;;;;6188411;28;20018;-83
2023/10/15 17:16:06;;;;;;;0.40;0.30;;;;;;;;;;6193772;28;20278;-82
2023/10/15 17:19:06;;;;;;;0.30;0.22;;;;;;;;;;6173592;28;20033;-82
2023/10/15 17:22:07;;;;;;;0.77;0.20;;;;;;;;;;6207296;28;20468;-82
2023/10/15 17:25:07;;;;;;;0.20;0.20;;;;;;;;;;6211541;28;20106;-81
2023/10/15 17:28:09;;;;;;;0.47;0.32;;;;;;;;;;6175481;28;20030;-81
2023/10/15 17:31:10;;;;;;;0.50;0.20;;;;;;;;;;6167553;28;20046;-81
2023/10/15 17:34:10;;;;;;;0.20;0.20;;;;;;;;;;6191556;28;20023;-83
2023/10/15 17:37:10;;;;;;;1.57;0.23;;;;;;;;;;6219707;28;20025;-82
2023/10/15 17:40:11;;;;;;;0.83;0.83;;;;;;;;;;6245210;28;20046;-83
2023/10/15 17:43:11;;;;;;;1.00;0.65;;;;;;;;;;6173547;28;20019;-82
2023/10/15 17:46:12;;;;;;;0.65;0.40;;;;;;;;;;6180782;28;20038;-83
2023/10/15 17:49:12;;;;;;;0.30;0.30;;;;;;;;;;6160500;28;20027;-82
2023/10/15 17:52:12;;;;;;;0.60;0.40;;;;;;;;;;6160048;28;20034;-81
2023/10/15 17:55:12;;;;;;;0.30;0.20;;;;;;;;;;6184460;28;20029;-84
2023/10/15 17:58:13;;;;;;;0.40;0.20;;;;;;;;;;6190251;28;20023;-82
2023/10/15 18:01:14;;;;;;;0.40;0.23;;;;;;;;;;6194827;28;20092;-83
2023/10/15 18:04:15;;;;;;;0.75;0.20;;;;;;;;;;6186705;28;20062;-83
2023/10/15 18:07:17;;;;;;;0.30;0.20;;;;;;;;;;6185182;28;20038;-85
2023/10/15 18:10:18;;;;;;;0.45;0.30;;;;;;;;;;6178893;28;20087;-82
2023/10/15 18:13:18;;;;;;;0.50;0.20;;;;;;;;;;6176834;28;20026;-82
2023/10/15 18:16:19;;;;;;;0.23;0.20;;;;;;;;;;6170429;28;20062;-82
2023/10/15 18:19:19;;;;;;;2.60;1.30;;;;;;;;;;6170980;28;20131;-82
2023/10/15 18:22:20;;;;;;;1.57;0.67;;;;;;;;;;6184837;28;20107;-82